createdAt,value
2019-04-13T00:00:03.100Z,1019.5
2019-04-13T00:01:04.500Z,1019.5
2019-04-13T00:02:06.023Z,1019.6
2019-04-13T00:03:07.416Z,1019.6
2019-04-13T00:04:08.811Z,1019.6
2019-04-13T00:05:10.397Z,1019.5
2019-04-13T00:06:11.788Z,1019.5
2019-04-13T00:07:13.228Z,1019.5
2019-04-13T00:08:14.620Z,1019.5
2019-04-13T00:09:16.108Z,1019.5
2019-04-13T00:10:17.500Z,1019.5
2019-04-13T00:11:19.001Z,1019.5
2019-04-13T00:12:20.386Z,1019.4
2019-04-13T00:13:21.870Z,1019.5
2019-04-13T00:14:23.262Z,1019.4
2019-04-13T00:15:24.751Z,1019.4
2019-04-13T00:16:26.144Z,1019.5
2019-04-13T00:17:27.630Z,1019.4
2019-04-13T00:18:29.022Z,1019.4
2019-04-13T00:19:30.511Z,1019.5
2019-04-13T00:20:31.906Z,1019.4
2019-04-13T00:21:33.394Z,1019.5
2019-04-13T00:22:34.789Z,1019.4
2019-04-13T00:23:36.273Z,1019.4
2019-04-13T00:24:37.663Z,1019.5
2019-04-13T00:25:39.059Z,1019.4
2019-04-13T00:26:40.599Z,1019.4
2019-04-13T00:27:41.993Z,1019.4
2019-04-13T00:28:43.388Z,1019.4
2019-04-13T00:29:44.916Z,1019.4
2019-04-13T00:30:46.365Z,1019.4
2019-04-13T00:31:47.756Z,1019.4
2019-04-13T00:32:49.242Z,1019.4
2019-04-13T00:33:50.637Z,1019.4
2019-04-13T00:34:52.027Z,1019.4
2019-04-13T00:35:53.610Z,1019.4
2019-04-13T00:36:55.008Z,1019.4
2019-04-13T00:37:56.400Z,1019.3
2019-04-13T00:38:57.931Z,1019.3
2019-04-13T00:39:59.321Z,1019.4
2019-04-13T00:41:00.717Z,1019.3
2019-04-13T00:42:02.255Z,1019.3
2019-04-13T00:43:03.647Z,1019.3
2019-04-13T00:44:05.044Z,1019.3
2019-04-13T00:45:06.575Z,1019.3
2019-04-13T00:46:07.967Z,1019.2
2019-04-13T00:47:09.363Z,1019.3
2019-04-13T00:48:10.853Z,1019.2
2019-04-13T00:49:12.241Z,1019.2
2019-04-13T00:50:13.636Z,1019.2
2019-04-13T00:51:15.220Z,1019.3
2019-04-13T00:52:16.612Z,1019.3
2019-04-13T00:53:18.098Z,1019.3
2019-04-13T00:54:19.492Z,1019.2
2019-04-13T00:55:20.930Z,1019.2
2019-04-13T00:56:22.326Z,1019.2
2019-04-13T00:57:23.859Z,1019.3
2019-04-13T00:58:25.266Z,1019.2
2019-04-13T00:59:26.692Z,1019.2
2019-04-13T01:00:28.079Z,1019.3
2019-04-13T01:01:29.475Z,1019.3
2019-04-13T01:02:31.012Z,1019.2
2019-04-13T01:03:32.412Z,1019.2
2019-04-13T01:04:33.808Z,1019.2
2019-04-13T01:05:35.382Z,1019.2
2019-04-13T01:06:36.777Z,1019.2
2019-04-13T01:07:38.170Z,1019.2
2019-04-13T01:08:39.731Z,1019.2
2019-04-13T01:09:41.121Z,1019.2
2019-04-13T01:10:42.516Z,1019.2
2019-04-13T01:11:43.984Z,1019.2
2019-04-13T01:12:45.370Z,1019.3
2019-04-13T01:13:46.769Z,1019.2
2019-04-13T01:14:48.298Z,1019.2
2019-04-13T01:15:49.696Z,1019.2
2019-04-13T01:16:51.191Z,1019.2
2019-04-13T01:17:52.580Z,1019.3
2019-04-13T01:18:54.062Z,1019.2
2019-04-13T01:19:55.456Z,1019.2
2019-04-13T01:20:56.942Z,1019.2
2019-04-13T01:21:58.333Z,1019.3
2019-04-13T01:22:59.823Z,1019.2
2019-04-13T01:24:01.215Z,1019.2
2019-04-13T01:25:02.616Z,1019.2
2019-04-13T01:26:04.144Z,1019.2
2019-04-13T01:27:05.545Z,1019.2
2019-04-13T01:28:06.939Z,1019.2
2019-04-13T01:29:08.464Z,1019.2
2019-04-13T01:30:09.859Z,1019.2
2019-04-13T01:31:11.264Z,1019.1
2019-04-13T01:32:12.835Z,1019.2
2019-04-13T01:33:14.227Z,1019.1
2019-04-13T01:34:15.667Z,1019.2
2019-04-13T01:35:17.062Z,1019.2
2019-04-13T01:36:18.455Z,1019.2
2019-04-13T01:37:20.037Z,1019.1
2019-04-13T01:38:21.430Z,1019.2
2019-04-13T01:39:22.825Z,1019.1
2019-04-13T01:40:24.312Z,1019.1
2019-04-13T01:41:25.705Z,1019.1
2019-04-13T01:42:27.193Z,1019.1
2019-04-13T01:43:28.582Z,1019.1
2019-04-13T01:44:30.073Z,1019.0
2019-04-13T01:45:31.465Z,1019.1
2019-04-13T01:46:32.857Z,1019.1
2019-04-13T01:47:34.394Z,1019.1
2019-04-13T01:48:35.793Z,1019.1
2019-04-13T01:49:37.197Z,1019.1
2019-04-13T01:50:38.716Z,1019.1
2019-04-13T01:51:40.109Z,1019.1
2019-04-13T01:52:41.591Z,1019.1
2019-04-13T01:53:42.989Z,1019.1
2019-04-13T01:54:44.478Z,1019.1
2019-04-13T01:55:45.872Z,1019.1
2019-04-13T01:56:47.358Z,1019.1
2019-04-13T01:57:48.763Z,1019.1
2019-04-13T01:58:50.249Z,1019.0
2019-04-13T01:59:51.643Z,1019.1
2019-04-13T02:00:53.039Z,1019.1
2019-04-13T02:01:54.562Z,1019.1
2019-04-13T02:02:55.958Z,1019.1
2019-04-13T02:03:57.353Z,1019.1
2019-04-13T02:04:58.885Z,1019.1
2019-04-13T02:06:00.275Z,1019.1
2019-04-13T02:07:01.666Z,1019.1
2019-04-13T02:08:03.251Z,1019.0
2019-04-13T02:09:04.647Z,1019.0
2019-04-13T02:10:06.037Z,1019.0
2019-04-13T02:11:07.525Z,1019.0
2019-04-13T02:12:08.916Z,1019.0
2019-04-13T02:13:10.309Z,1019.0
2019-04-13T02:14:11.846Z,1019.0
2019-04-13T02:15:13.243Z,1018.9
2019-04-13T02:16:14.636Z,1018.9
2019-04-13T02:17:16.168Z,1018.9
2019-04-13T02:18:17.564Z,1018.9
2019-04-13T02:19:18.957Z,1018.9
2019-04-13T02:20:20.489Z,1018.9
2019-04-13T02:21:21.881Z,1018.9
2019-04-13T02:22:23.278Z,1018.9
2019-04-13T02:23:24.810Z,1018.9
2019-04-13T02:24:26.202Z,1018.9
2019-04-13T02:25:27.600Z,1018.9
2019-04-13T02:26:29.133Z,1018.9
2019-04-13T02:27:30.528Z,1018.9
2019-04-13T02:28:32.012Z,1018.9
2019-04-13T02:29:33.407Z,1018.9
2019-04-13T02:30:34.901Z,1018.9
2019-04-13T02:31:36.288Z,1018.9
2019-04-13T02:32:37.694Z,1018.9
2019-04-13T02:33:39.218Z,1018.9
2019-04-13T02:34:40.608Z,1018.9
2019-04-13T02:35:42.003Z,1018.9
2019-04-13T02:36:43.539Z,1018.9
2019-04-13T02:37:44.937Z,1018.8
2019-04-13T02:38:46.328Z,1018.9
2019-04-13T02:39:47.909Z,1018.9
2019-04-13T02:40:49.296Z,1018.9
2019-04-13T02:41:50.687Z,1018.8
2019-04-13T02:42:53.218Z,1018.9
2019-04-13T02:43:54.599Z,1018.9
2019-04-13T02:44:55.991Z,1018.9
2019-04-13T02:45:57.531Z,1018.8
2019-04-13T02:46:58.926Z,1018.9
2019-04-13T02:48:00.319Z,1018.8
2019-04-13T02:49:01.848Z,1018.9
2019-04-13T02:50:03.249Z,1018.9
2019-04-13T02:51:04.635Z,1018.9
2019-04-13T02:52:06.213Z,1018.9
2019-04-13T02:53:07.610Z,1018.9
2019-04-13T02:54:09.095Z,1018.9
2019-04-13T02:55:10.491Z,1018.9
2019-04-13T02:56:11.976Z,1018.9
2019-04-13T02:57:13.367Z,1018.8
2019-04-13T02:58:14.764Z,1018.9
2019-04-13T02:59:16.298Z,1018.9
2019-04-13T03:00:17.689Z,1018.9
2019-04-13T03:01:19.083Z,1018.9
2019-04-13T03:02:20.637Z,1018.8
2019-04-13T03:03:22.002Z,1018.9
2019-04-13T03:04:23.394Z,1018.8
2019-04-13T03:05:24.895Z,1018.9
2019-04-13T03:06:26.286Z,1018.8
2019-04-13T03:07:28.705Z,1018.8
2019-04-13T03:08:29.218Z,1018.8
2019-04-13T03:09:30.610Z,1018.8
2019-04-13T03:10:32.097Z,1018.8
2019-04-13T03:11:33.489Z,1018.9
2019-04-13T03:12:34.901Z,1018.8
2019-04-13T03:13:36.417Z,1018.9
2019-04-13T03:14:37.812Z,1018.9
2019-04-13T03:15:39.207Z,1018.9
2019-04-13T03:16:40.738Z,1018.9
2019-04-13T03:17:42.132Z,1018.8
2019-04-13T03:18:43.527Z,1018.9
2019-04-13T03:19:44.917Z,1018.9
2019-04-13T03:20:46.309Z,1018.8
2019-04-13T03:21:47.738Z,1018.8
2019-04-13T03:22:49.136Z,1018.9
2019-04-13T03:23:50.523Z,1018.9
2019-04-13T03:24:52.058Z,1018.8
2019-04-13T03:25:53.451Z,1018.9
2019-04-13T03:26:54.844Z,1018.9
2019-04-13T03:27:56.380Z,1018.9
2019-04-13T03:28:57.777Z,1018.9
2019-04-13T03:29:59.171Z,1018.9
2019-04-13T03:31:00.559Z,1018.8
2019-04-13T03:32:01.953Z,1018.8
2019-04-13T03:33:03.393Z,1018.8
2019-04-13T03:34:04.776Z,1018.9
2019-04-13T03:35:06.258Z,1018.9
2019-04-13T03:36:07.655Z,1018.8
2019-04-13T03:37:09.141Z,1018.8
2019-04-13T03:38:10.534Z,1018.9
2019-04-13T03:39:12.021Z,1018.9
2019-04-13T03:40:13.411Z,1018.8
2019-04-13T03:41:14.903Z,1018.8
2019-04-13T03:42:16.296Z,1018.8
2019-04-13T03:43:17.827Z,1018.8
2019-04-13T03:44:19.219Z,1018.8
2019-04-13T03:45:20.708Z,1018.8
2019-04-13T03:46:22.103Z,1018.9
2019-04-13T03:47:23.589Z,1018.8
2019-04-13T03:48:24.985Z,1018.8
2019-04-13T03:49:26.475Z,1018.8
2019-04-13T03:50:27.871Z,1018.8
2019-04-13T03:51:29.306Z,1018.8
2019-04-13T03:52:30.696Z,1018.7
2019-04-13T03:53:32.188Z,1018.8
2019-04-13T03:54:33.622Z,1018.8
2019-04-13T03:55:35.069Z,1018.8
2019-04-13T03:56:36.461Z,1018.8
2019-04-13T03:57:37.950Z,1018.8
2019-04-13T03:58:39.345Z,1018.8
2019-04-13T03:59:40.856Z,1018.8
2019-04-13T04:00:42.270Z,1018.8
2019-04-13T04:01:45.485Z,1018.8
2019-04-13T04:02:45.070Z,1018.8
2019-04-13T04:03:46.592Z,1018.8
2019-04-13T04:04:47.986Z,1018.9
2019-04-13T04:05:49.472Z,1018.8
2019-04-13T04:06:50.864Z,1018.9
2019-04-13T04:07:52.355Z,1018.9
2019-04-13T04:08:53.746Z,1018.8
2019-04-13T04:09:55.237Z,1018.8
2019-04-13T04:10:56.631Z,1018.8
2019-04-13T04:11:58.118Z,1018.8
2019-04-13T04:12:59.510Z,1018.9
2019-04-13T04:14:00.997Z,1018.9
2019-04-13T04:15:02.395Z,1018.9
2019-04-13T04:16:03.878Z,1018.9
2019-04-13T04:17:05.271Z,1018.9
2019-04-13T04:18:06.663Z,1018.9
2019-04-13T04:19:08.208Z,1018.9
2019-04-13T04:20:09.594Z,1018.9
2019-04-13T04:21:10.990Z,1018.9
2019-04-13T04:22:12.521Z,1018.9
2019-04-13T04:23:13.915Z,1018.9
2019-04-13T04:24:15.307Z,1018.9
2019-04-13T04:25:16.843Z,1018.9
2019-04-13T04:26:18.242Z,1018.9
2019-04-13T04:27:19.635Z,1018.9
2019-04-13T04:28:21.186Z,1018.9
2019-04-13T04:29:22.579Z,1018.9
2019-04-13T04:30:24.046Z,1019.0
2019-04-13T04:31:25.499Z,1018.9
2019-04-13T04:32:26.974Z,1018.9
2019-04-13T04:33:28.372Z,1018.9
2019-04-13T04:34:29.851Z,1018.9
2019-04-13T04:35:31.252Z,1018.9
2019-04-13T04:36:32.733Z,1018.9
2019-04-13T04:37:34.131Z,1018.9
2019-04-13T04:38:35.571Z,1018.9
2019-04-13T04:39:36.963Z,1018.9
2019-04-13T04:40:38.496Z,1018.9
2019-04-13T04:41:39.889Z,1018.9
2019-04-13T04:42:41.374Z,1018.8
2019-04-13T04:43:42.768Z,1018.9
2019-04-13T04:44:44.260Z,1018.9
2019-04-13T04:45:45.654Z,1018.9
2019-04-13T04:46:47.140Z,1018.9
2019-04-13T04:47:48.534Z,1018.9
2019-04-13T04:48:50.021Z,1018.9
2019-04-13T04:49:51.415Z,1018.9
2019-04-13T04:50:52.901Z,1019.0
2019-04-13T04:51:54.296Z,1018.9
2019-04-13T04:52:55.781Z,1018.9
2019-04-13T04:53:57.180Z,1019.0
2019-04-13T04:54:58.666Z,1018.9
2019-04-13T04:56:00.066Z,1019.0
2019-04-13T04:57:01.569Z,1018.9
2019-04-13T04:58:02.941Z,1018.9
2019-04-13T04:59:04.345Z,1018.9
2019-04-13T05:00:05.874Z,1018.9
2019-04-13T05:01:07.268Z,1019.0
2019-04-13T05:02:08.663Z,1019.0
2019-04-13T05:03:10.145Z,1019.0
2019-04-13T05:04:11.538Z,1019.0
2019-04-13T05:05:13.066Z,1019.0
2019-04-13T05:06:14.466Z,1019.1
2019-04-13T05:07:15.951Z,1019.1
2019-04-13T05:08:17.347Z,1019.0
2019-04-13T05:09:18.830Z,1019.0
2019-04-13T05:10:20.228Z,1019.0
2019-04-13T05:11:21.710Z,1019.1
2019-04-13T05:12:23.109Z,1019.1
2019-04-13T05:13:24.505Z,1019.0
2019-04-13T05:14:26.035Z,1019.0
2019-04-13T05:15:27.427Z,1019.0
2019-04-13T05:16:28.823Z,1019.0
2019-04-13T05:17:30.356Z,1019.1
2019-04-13T05:18:31.750Z,1019.0
2019-04-13T05:19:33.146Z,1019.0
2019-04-13T05:20:34.676Z,1019.1
2019-04-13T05:21:36.073Z,1019.0
2019-04-13T05:22:37.557Z,1019.1
2019-04-13T05:23:38.954Z,1019.1
2019-04-13T05:24:40.438Z,1019.0
2019-04-13T05:25:41.835Z,1019.1
2019-04-13T05:26:43.319Z,1019.1
2019-04-13T05:27:44.720Z,1019.1
2019-04-13T05:28:46.111Z,1019.1
2019-04-13T05:29:47.600Z,1019.2
2019-04-13T05:30:48.997Z,1019.2
2019-04-13T05:31:50.416Z,1019.2
2019-04-13T05:32:51.960Z,1019.2
2019-04-13T05:33:53.360Z,1019.2
2019-04-13T05:34:54.754Z,1019.3
2019-04-13T05:35:56.283Z,1019.3
2019-04-13T05:36:57.678Z,1019.2
2019-04-13T05:37:59.122Z,1019.3
2019-04-13T05:39:00.521Z,1019.2
2019-04-13T05:40:02.047Z,1019.2
2019-04-13T05:41:03.443Z,1019.2
2019-04-13T05:42:04.932Z,1019.2
2019-04-13T05:43:06.330Z,1019.3
2019-04-13T05:44:07.733Z,1019.3
2019-04-13T05:45:09.251Z,1019.3
2019-04-13T05:46:10.647Z,1019.3
2019-04-13T05:47:12.043Z,1019.3
2019-04-13T05:48:13.571Z,1019.3
2019-04-13T05:49:14.969Z,1019.3
2019-04-13T05:50:16.369Z,1019.3
2019-04-13T05:51:17.953Z,1019.3
2019-04-13T05:52:19.304Z,1019.3
2019-04-13T05:53:20.709Z,1019.3
2019-04-13T05:54:22.212Z,1019.3
2019-04-13T05:55:23.611Z,1019.4
2019-04-13T05:56:25.093Z,1019.4
2019-04-13T05:57:26.456Z,1019.4
2019-04-13T05:58:27.974Z,1019.4
2019-04-13T05:59:29.374Z,1019.4
2019-04-13T06:00:30.779Z,1019.4
2019-04-13T06:01:32.296Z,1019.4
2019-04-13T06:02:35.686Z,1019.4
2019-04-13T06:03:35.055Z,1019.5
2019-04-13T06:04:36.618Z,1019.4
2019-04-13T06:05:38.016Z,1019.4
2019-04-13T06:06:39.497Z,1019.4
2019-04-13T06:07:40.899Z,1019.4
2019-04-13T06:08:42.378Z,1019.4
2019-04-13T06:09:43.777Z,1019.4
2019-04-13T06:10:45.260Z,1019.4
2019-04-13T06:11:46.658Z,1019.4
2019-04-13T06:12:48.142Z,1019.4
2019-04-13T06:13:49.541Z,1019.5
2019-04-13T06:14:51.026Z,1019.4
2019-04-13T06:15:52.417Z,1019.5
2019-04-13T06:16:53.900Z,1019.4
2019-04-13T06:17:55.299Z,1019.4
2019-04-13T06:18:56.694Z,1019.4
2019-04-13T06:19:58.223Z,1019.4
2019-04-13T06:20:59.619Z,1019.4
2019-04-13T06:22:01.022Z,1019.4
2019-04-13T06:23:02.543Z,1019.5
2019-04-13T06:24:03.943Z,1019.4
2019-04-13T06:25:09.231Z,1019.5
2019-04-13T06:26:06.867Z,1019.5
2019-04-13T06:27:11.245Z,1019.5
2019-04-13T06:28:09.715Z,1019.5
2019-04-13T06:29:11.115Z,1019.4
2019-04-13T06:30:12.509Z,1019.5
2019-04-13T06:31:14.037Z,1019.4
2019-04-13T06:32:15.437Z,1019.5
2019-04-13T06:33:16.835Z,1019.6
2019-04-13T06:34:18.354Z,1019.5
2019-04-13T06:35:23.395Z,1019.7
2019-04-13T06:36:21.236Z,1019.7
2019-04-13T06:37:22.639Z,1019.7
2019-04-13T06:38:24.155Z,1019.8
2019-04-13T06:39:25.545Z,1019.9
2019-04-13T06:40:27.031Z,1019.8
2019-04-13T06:41:28.434Z,1019.8
2019-04-13T06:42:29.912Z,1019.9
2019-04-13T06:43:31.327Z,1019.9
2019-04-13T06:44:36.065Z,1019.9
2019-04-13T06:45:34.167Z,1019.9
2019-04-13T06:46:35.676Z,1019.9
2019-04-13T06:47:37.079Z,1020.1
2019-04-13T06:48:38.525Z,1020.0
2019-04-13T06:49:39.927Z,1020.0
2019-04-13T06:50:41.440Z,1020.1
2019-04-13T06:51:42.875Z,1020.2
2019-04-13T06:52:45.294Z,1020.2
2019-04-13T06:53:45.893Z,1020.2
2019-04-13T06:54:47.407Z,1020.1
2019-04-13T06:55:48.855Z,1020.2
2019-04-13T06:56:50.252Z,1020.2
2019-04-13T06:57:51.656Z,1020.2
2019-04-13T06:58:53.133Z,1020.2
2019-04-13T06:59:54.540Z,1020.2
2019-04-13T07:00:56.012Z,1020.1
2019-04-13T07:01:57.419Z,1020.1
2019-04-13T07:02:58.898Z,1020.1
2019-04-13T07:04:00.311Z,1020.0
2019-04-13T07:05:01.722Z,1020.1
2019-04-13T07:06:03.212Z,1020.1
2019-04-13T07:07:05.445Z,1020.2
2019-04-13T07:08:05.987Z,1020.3
2019-04-13T07:09:07.538Z,1020.4
2019-04-13T07:10:08.950Z,1020.4
2019-04-13T07:11:10.356Z,1020.4
2019-04-13T07:12:11.857Z,1020.3
2019-04-13T07:13:13.263Z,1020.2
2019-04-13T07:14:14.671Z,1020.2
2019-04-13T07:15:16.178Z,1020.1
2019-04-13T07:16:17.584Z,1020.3
2019-04-13T07:17:19.064Z,1020.3
2019-04-13T07:18:20.471Z,1020.2
2019-04-13T07:19:21.940Z,1020.2
2019-04-13T07:20:23.345Z,1020.2
2019-04-13T07:21:24.823Z,1020.2
2019-04-13T07:22:26.236Z,1020.2
2019-04-13T07:23:27.704Z,1020.2
2019-04-13T07:24:29.430Z,1020.2
2019-04-13T07:25:33.201Z,1020.2
2019-04-13T07:26:32.023Z,1020.1
2019-04-13T07:27:33.431Z,1020.0
2019-04-13T07:28:34.836Z,1020.1
2019-04-13T07:29:36.346Z,1020.0
2019-04-13T07:30:37.754Z,1020.0
2019-04-13T07:31:39.227Z,1020.2
2019-04-13T07:32:40.635Z,1020.2
2019-04-13T07:33:42.111Z,1020.1
2019-04-13T07:34:43.524Z,1020.4
2019-04-13T07:35:44.989Z,1020.2
2019-04-13T07:36:46.393Z,1020.4
2019-04-13T07:37:47.871Z,1020.3
2019-04-13T07:38:49.277Z,1020.2
2019-04-13T07:39:50.751Z,1020.1
2019-04-13T07:40:52.177Z,1020.0
2019-04-13T07:41:53.642Z,1020.0
2019-04-13T07:42:57.930Z,1020.2
2019-04-13T07:43:56.513Z,1020.4
2019-04-13T07:44:57.918Z,1020.3
2019-04-13T07:45:59.323Z,1020.4
2019-04-13T07:47:00.835Z,1020.4
2019-04-13T07:48:02.249Z,1020.3
2019-04-13T07:49:03.645Z,1020.3
2019-04-13T07:50:05.155Z,1020.2
2019-04-13T07:51:06.566Z,1020.5
2019-04-13T07:52:07.963Z,1020.3
2019-04-13T07:53:09.476Z,1020.1
2019-04-13T07:54:10.882Z,1020.1
2019-04-13T07:55:12.291Z,1020.1
2019-04-13T07:56:13.806Z,1020.0
2019-04-13T07:57:15.201Z,1020.1
2019-04-13T07:58:16.865Z,1020.0
2019-04-13T07:59:18.413Z,1019.8
2019-04-13T08:00:19.343Z,1020.0
2019-04-13T08:01:23.267Z,1019.9
2019-04-13T08:02:22.174Z,1020.2
2019-04-13T08:03:23.620Z,1019.9
2019-04-13T08:04:25.116Z,1020.0
2019-04-13T08:05:26.519Z,1019.9
2019-04-13T08:06:27.932Z,1019.9
2019-04-13T08:07:29.437Z,1019.9
2019-04-13T08:08:39.659Z,1019.7
2019-04-13T08:09:32.320Z,1019.7
2019-04-13T08:10:33.727Z,1019.7
2019-04-13T08:11:35.122Z,1019.7
2019-04-13T08:12:36.640Z,1019.7
2019-04-13T08:13:38.041Z,1019.6
2019-04-13T08:14:39.443Z,1019.6
2019-04-13T08:15:40.962Z,1019.5
2019-04-13T08:16:42.364Z,1019.6
2019-04-13T08:17:43.768Z,1019.6
2019-04-13T08:18:45.288Z,1019.6
2019-04-13T08:19:46.688Z,1019.6
2019-04-13T08:20:48.100Z,1019.5
2019-04-13T08:21:49.605Z,1019.5
2019-04-13T08:22:51.011Z,1019.5
2019-04-13T08:23:52.413Z,1019.5
2019-04-13T08:24:53.930Z,1019.6
2019-04-13T08:25:55.332Z,1019.6
2019-04-13T08:26:56.732Z,1019.6
2019-04-13T08:27:58.250Z,1019.6
2019-04-13T08:28:59.654Z,1019.6
2019-04-13T08:30:01.141Z,1019.6
2019-04-13T08:31:02.550Z,1019.5
2019-04-13T08:32:04.000Z,1019.6
2019-04-13T08:33:05.454Z,1019.5
2019-04-13T08:34:06.887Z,1019.6
2019-04-13T08:35:08.290Z,1019.6
2019-04-13T08:36:09.820Z,1019.6
2019-04-13T08:37:11.224Z,1019.5
2019-04-13T08:38:13.532Z,1019.6
2019-04-13T08:39:14.304Z,1019.6
2019-04-13T08:40:15.467Z,1019.7
2019-04-13T08:41:20.275Z,1019.7
2019-04-13T08:42:19.743Z,1019.6
2019-04-13T08:43:19.844Z,1019.6
2019-04-13T08:44:21.299Z,1019.7
2019-04-13T08:45:22.740Z,1019.7
2019-04-13T08:46:24.133Z,1019.7
2019-04-13T08:47:25.663Z,1019.5
2019-04-13T08:48:27.064Z,1019.7
2019-04-13T08:49:28.470Z,1019.6
2019-04-13T08:50:29.937Z,1019.6
2019-04-13T08:51:31.340Z,1019.6
2019-04-13T08:52:32.744Z,1019.5
2019-04-13T08:53:34.259Z,1019.6
2019-04-13T08:54:35.659Z,1019.6
2019-04-13T08:55:39.766Z,1019.6
2019-04-13T08:56:38.995Z,1019.5
2019-04-13T08:57:40.397Z,1019.4
2019-04-13T08:58:41.958Z,1019.4
2019-04-13T08:59:43.325Z,1019.4
2019-04-13T09:00:44.720Z,1019.3
2019-04-13T09:01:46.126Z,1019.4
2019-04-13T09:02:47.637Z,1019.5
2019-04-13T09:03:49.033Z,1019.7
2019-04-13T09:04:50.508Z,1019.7
2019-04-13T09:05:51.955Z,1019.6
2019-04-13T09:06:53.355Z,1019.8
2019-04-13T09:07:54.841Z,1019.9
2019-04-13T09:08:56.238Z,1020.3
2019-04-13T09:09:57.720Z,1019.8
2019-04-13T09:10:59.973Z,1019.6
2019-04-13T09:12:05.150Z,1019.6
2019-04-13T09:13:01.976Z,1019.9
2019-04-13T09:14:07.697Z,1019.6
2019-04-13T09:15:08.194Z,1020.2
2019-04-13T09:16:09.214Z,1021.0
2019-04-13T09:17:14.888Z,1020.5
2019-04-13T09:18:12.092Z,1020.8
2019-04-13T09:19:15.190Z,1021.1
2019-04-13T09:20:15.485Z,1019.9
2019-04-13T09:21:16.647Z,1019.8
2019-04-13T09:22:18.678Z,1019.6
2019-04-13T09:23:18.958Z,1019.6
2019-04-13T09:24:20.544Z,1019.7
2019-04-13T09:25:23.907Z,1019.9
2019-04-13T09:26:23.321Z,1026.9
2019-04-13T09:27:24.895Z,1020.4
2019-04-13T09:28:26.279Z,1020.5
2019-04-13T09:29:27.799Z,1020.6
2019-04-13T09:30:29.204Z,1020.1
2019-04-13T09:31:30.601Z,1020.0
2019-04-13T09:32:32.072Z,1020.2
2019-04-13T09:33:35.436Z,1020.0
2019-04-13T09:34:35.056Z,1020.1
2019-04-13T09:35:36.215Z,1025.4
2019-04-13T09:36:37.627Z,1023.2
2019-04-13T09:37:39.081Z,1028.1
2019-04-13T09:38:42.670Z,1030.1
2019-04-13T09:39:41.843Z,1020.5
2019-04-13T09:40:43.392Z,1028.8
2019-04-13T09:41:46.717Z,1020.9
2019-04-13T09:42:47.204Z,1020.8
2019-04-13T09:43:47.717Z,1026.4
2019-04-13T09:44:49.115Z,1025.0
2019-04-13T09:45:50.536Z,1022.8
2019-04-13T09:46:52.079Z,1027.4
2019-04-13T09:47:53.483Z,1022.5
2019-04-13T09:48:54.892Z,1022.9
2019-04-13T09:49:59.282Z,1021.0
2019-04-13T09:50:57.728Z,1020.1
2019-04-13T09:52:00.238Z,1019.7
2019-04-13T09:53:00.723Z,1019.6
2019-04-13T09:54:02.121Z,1019.6
2019-04-13T09:55:03.558Z,1019.6
2019-04-13T09:56:04.964Z,1019.6
2019-04-13T09:57:06.438Z,1019.6
2019-04-13T09:58:07.836Z,1019.6
2019-04-13T09:59:11.009Z,1019.6
2019-04-13T10:00:10.687Z,1019.6
2019-04-13T10:01:12.205Z,1019.7
2019-04-13T10:02:15.050Z,1019.7
2019-04-13T10:03:15.116Z,1019.7
2019-04-13T10:04:16.537Z,1020.0
2019-04-13T10:05:17.972Z,1021.2
2019-04-13T10:06:19.376Z,1020.9
2019-04-13T10:07:20.784Z,1020.1
2019-04-13T10:08:22.287Z,1020.8
2019-04-13T10:09:23.686Z,1029.2
2019-04-13T10:10:25.184Z,1020.5
2019-04-13T10:11:26.610Z,1020.6
2019-04-13T10:12:28.020Z,1020.5
2019-04-13T10:13:29.475Z,1020.1
2019-04-13T10:14:30.954Z,1021.7
2019-04-13T10:15:32.464Z,1019.7
2019-04-13T10:16:33.871Z,1019.4
2019-04-13T10:17:35.459Z,1019.4
2019-04-13T10:18:36.859Z,1019.3
2019-04-13T10:19:40.026Z,1019.3
2019-04-13T10:20:42.206Z,1019.4
2019-04-13T10:21:41.172Z,1019.5
2019-04-13T10:22:42.579Z,1019.6
2019-04-13T10:23:44.104Z,1019.4
2019-04-13T10:24:45.808Z,1019.4
2019-04-13T10:25:47.522Z,1019.3
2019-04-13T10:26:49.083Z,1019.2
2019-04-13T10:27:50.312Z,1019.1
2019-04-13T10:28:51.973Z,1019.1
2019-04-13T10:29:53.447Z,1019.1
2019-04-13T10:30:55.806Z,1019.1
2019-04-13T10:31:58.808Z,1019.1
2019-04-13T10:32:57.822Z,1019.1
2019-04-13T10:33:59.356Z,1019.1
2019-04-13T10:35:00.757Z,1019.3
2019-04-13T10:36:02.206Z,1019.3
2019-04-13T10:37:03.606Z,1019.4
2019-04-13T10:38:05.016Z,1019.6
2019-04-13T10:39:08.627Z,1019.7
2019-04-13T10:40:08.678Z,1020.1
2019-04-13T10:41:09.490Z,1021.1
2019-04-13T10:42:10.846Z,1020.6
2019-04-13T10:43:16.324Z,1024.8
2019-04-13T10:44:13.621Z,1023.5
2019-04-13T10:45:15.169Z,1022.6
2019-04-13T10:46:16.591Z,1021.3
2019-04-13T10:47:17.993Z,1019.8
2019-04-13T10:48:19.492Z,1019.9
2019-04-13T10:49:20.891Z,1019.9
2019-04-13T10:50:22.376Z,1019.6
2019-04-13T10:51:23.814Z,1019.6
2019-04-13T10:52:25.218Z,1019.9
2019-04-13T10:53:26.681Z,1019.6
2019-04-13T10:54:28.132Z,1019.5
2019-04-13T10:55:29.533Z,1019.6
2019-04-13T10:56:31.011Z,1019.4
2019-04-13T10:57:32.512Z,1019.3
2019-04-13T10:58:34.098Z,1019.2
2019-04-13T10:59:35.488Z,1019.3
2019-04-13T11:00:38.004Z,1019.7
2019-04-13T11:01:39.424Z,1019.4
2019-04-13T11:02:40.907Z,1019.8
2019-04-13T11:03:42.301Z,1019.9
2019-04-13T11:04:43.767Z,1020.0
2019-04-13T11:05:45.174Z,1020.0
2019-04-13T11:06:46.674Z,1020.0
2019-04-13T11:07:48.079Z,1019.9
2019-04-13T11:08:51.320Z,1019.9
2019-04-13T11:09:50.900Z,1020.1
2019-04-13T11:10:52.410Z,1020.1
2019-04-13T11:11:53.820Z,1020.1
2019-04-13T11:12:55.291Z,1020.1
2019-04-13T11:13:56.701Z,1020.1
2019-04-13T11:14:58.171Z,1020.2
2019-04-13T11:15:59.639Z,1020.0
2019-04-13T11:17:01.063Z,1020.3
2019-04-13T11:18:03.939Z,1019.9
2019-04-13T11:19:07.486Z,1019.5
2019-04-13T11:20:05.343Z,1019.1
2019-04-13T11:21:06.829Z,1019.1
2019-04-13T11:22:08.385Z,1019.2
2019-04-13T11:23:09.899Z,1019.2
2019-04-13T11:24:11.306Z,1019.3
2019-04-13T11:25:12.781Z,1019.4
2019-04-13T11:26:14.197Z,1019.3
2019-04-13T11:27:15.658Z,1019.3
2019-04-13T11:28:17.044Z,1019.1
2019-04-13T11:29:18.443Z,1019.2
2019-04-13T11:30:19.985Z,1019.1
2019-04-13T11:31:23.058Z,1019.1
2019-04-13T11:32:22.755Z,1019.1
2019-04-13T11:33:24.299Z,1019.1
2019-04-13T11:34:29.067Z,1019.1
2019-04-13T11:35:27.186Z,1019.1
2019-04-13T11:36:28.597Z,1019.3
2019-04-13T11:37:32.406Z,1019.6
2019-04-13T11:38:31.466Z,1019.9
2019-04-13T11:39:34.266Z,1019.8
2019-04-13T11:40:34.325Z,1019.6
2019-04-13T11:41:35.828Z,1019.2
2019-04-13T11:42:37.281Z,1018.8
2019-04-13T11:43:38.691Z,1018.6
2019-04-13T11:44:40.154Z,1018.6
2019-04-13T11:45:41.562Z,1018.7
2019-04-13T11:46:44.262Z,1018.9
2019-04-13T11:47:44.487Z,1019.0
2019-04-13T11:48:45.889Z,1018.8
2019-04-13T11:49:47.353Z,1018.7
2019-04-13T11:50:48.821Z,1018.7
2019-04-13T11:51:50.443Z,1018.6
2019-04-13T11:52:51.847Z,1018.7
2019-04-13T11:53:54.144Z,1018.7
2019-04-13T11:54:54.623Z,1018.8
2019-04-13T11:55:56.028Z,1018.7
2019-04-13T11:56:57.665Z,1018.7
2019-04-13T11:57:59.077Z,1018.7
2019-04-13T11:59:00.474Z,1018.6
2019-04-13T12:00:01.985Z,1018.6
2019-04-13T12:01:06.420Z,1018.5
2019-04-13T12:02:04.778Z,1018.5
2019-04-13T12:03:06.284Z,1018.4
2019-04-13T12:04:08.744Z,1018.5
2019-04-13T12:05:09.167Z,1018.6
2019-04-13T12:06:10.570Z,1018.6
2019-04-13T12:07:14.412Z,1018.5
2019-04-13T12:08:26.297Z,1018.5
2019-04-13T12:09:25.000Z,1018.4
2019-04-13T12:10:26.611Z,1018.5
2019-04-13T12:11:28.012Z,1018.5
2019-04-13T12:12:29.420Z,1018.6
2019-04-13T12:13:32.200Z,1018.6
2019-04-13T12:14:34.440Z,1018.5
2019-04-13T12:15:38.428Z,1018.4
2019-04-13T12:16:35.427Z,1018.4
2019-04-13T12:17:36.899Z,1018.5
2019-04-13T12:18:38.303Z,1018.5
2019-04-13T12:19:39.776Z,1018.5
2019-04-13T12:20:41.188Z,1018.6
2019-04-13T12:21:42.659Z,1018.6
2019-04-13T12:22:44.076Z,1018.6
2019-04-13T12:23:45.580Z,1018.7
2019-04-13T12:24:47.305Z,1018.8
2019-04-13T12:25:48.845Z,1018.8
2019-04-13T12:26:50.251Z,1018.8
2019-04-13T12:27:51.720Z,1018.8
2019-04-13T12:28:53.175Z,1018.8
2019-04-13T12:29:55.058Z,1018.8
2019-04-13T12:30:55.965Z,1018.8
2019-04-13T12:31:57.473Z,1018.8
2019-04-13T12:32:58.880Z,1018.8
2019-04-13T12:34:03.398Z,1018.8
2019-04-13T12:35:07.430Z,1018.7
2019-04-13T12:36:03.236Z,1018.6
2019-04-13T12:37:04.656Z,1018.6
2019-04-13T12:38:09.601Z,1018.6
2019-04-13T12:39:07.785Z,1018.6
2019-04-13T12:40:11.573Z,1018.5
2019-04-13T12:41:10.445Z,1018.5
2019-04-13T12:42:11.845Z,1018.5
2019-04-13T12:43:13.251Z,1018.5
2019-04-13T12:44:14.761Z,1018.5
2019-04-13T12:45:16.162Z,1018.5
2019-04-13T12:46:17.751Z,1018.5